Time;durP1;ratioP1;P1;durP2;ratioP2;P2;SDS_P1;SDS_P2;PMS_P1;PMS_P2;Temp;Humidity;BMP_temperature;BMP_pressure;BME280_temperature;BME280_humidity;BME280_pressure;Samples;Min_cycle;Max_cycle;Signal;HPM_P1;HPM_P2
2021/12/04 00:00:09;;;;;;;4.73;4.03;;;;;;;;;;5072897;28;20201;-92
2021/12/04 00:02:36;;;;;;;5.57;4.30;;;;;;;;;;5072982;28;20708;-93
2021/12/04 00:05:06;;;;;;;6.73;6.13;;;;;;;;;;5072898;28;20193;-94
2021/12/04 00:07:35;;;;;;;8.97;4.87;;;;;;;;;;5073154;28;20251;-93
2021/12/04 00:10:03;;;;;;;6.10;4.53;;;;;;;;;;5072662;28;20197;-94
2021/12/04 00:12:32;;;;;;;4.90;4.47;;;;;;;;;;5072816;28;20204;-95
2021/12/04 00:14:59;;;;;;;5.97;5.33;;;;;;;;;;5072943;28;20211;-93
2021/12/04 00:17:27;;;;;;;5.60;4.23;;;;;;;;;;5073462;28;20274;-94
2021/12/04 00:19:54;;;;;;;4.07;3.70;;;;;;;;;;5073213;28;20288;-94
2021/12/04 00:22:23;;;;;;;6.17;5.10;;;;;;;;;;5073292;28;20218;-93
2021/12/04 00:24:50;;;;;;;6.77;4.60;;;;;;;;;;5072715;28;20642;-93
2021/12/04 00:27:17;;;;;;;6.13;3.77;;;;;;;;;;5072901;28;20219;-92
2021/12/04 00:29:45;;;;;;;14.43;10.30;;;;;;;;;;5072672;28;20193;-93
2021/12/04 00:32:14;;;;;;;23.27;14.93;;;;;;;;;;5072545;28;20239;-93
2021/12/04 00:34:46;;;;;;;17.37;11.30;;;;;;;;;;5072633;28;20201;-92
2021/12/04 00:37:34;;;;;;;37.67;21.97;;;;;;;;;;5072639;28;20219;-93
2021/12/04 00:51:08;;;;;;;8.37;6.70;;;;;;;;;;5071587;28;20189;-92
2021/12/04 00:53:36;;;;;;;7.87;6.23;;;;;;;;;;5072291;28;20237;-92
2021/12/04 00:56:05;;;;;;;13.80;9.57;;;;;;;;;;5072285;28;20228;-93
2021/12/04 00:58:33;;;;;;;5.43;4.90;;;;;;;;;;5072615;28;20575;-93
2021/12/04 01:01:00;;;;;;;7.80;6.37;;;;;;;;;;5072600;28;20228;-93
2021/12/04 01:03:27;;;;;;;6.93;4.23;;;;;;;;;;5072208;28;20193;-92
2021/12/04 01:05:55;;;;;;;6.27;4.60;;;;;;;;;;5072506;28;20229;-93
2021/12/04 01:08:22;;;;;;;5.50;4.30;;;;;;;;;;5072463;28;20319;-92
2021/12/04 01:10:49;;;;;;;6.50;4.90;;;;;;;;;;5072329;28;20276;-92
2021/12/04 01:13:20;;;;;;;5.57;4.23;;;;;;;;;;5072496;28;20654;-93
2021/12/04 01:15:48;;;;;;;13.63;9.87;;;;;;;;;;5072431;28;20643;-93
2021/12/04 01:18:15;;;;;;;10.10;8.70;;;;;;;;;;5072016;28;20197;-92
2021/12/04 01:20:42;;;;;;;5.40;4.90;;;;;;;;;;5072584;28;20283;-91
2021/12/04 01:23:09;;;;;;;10.40;9.40;;;;;;;;;;5075808;28;20262;-92
2021/12/04 01:25:38;;;;;;;4.57;4.17;;;;;;;;;;5075831;28;20310;-92
2021/12/04 01:28:05;;;;;;;8.10;7.37;;;;;;;;;;5075649;28;20197;-92
2021/12/04 01:30:34;;;;;;;10.97;6.00;;;;;;;;;;5076059;28;20283;-92
2021/12/04 01:33:01;;;;;;;4.53;3.97;;;;;;;;;;5076064;28;20258;-91
2021/12/04 01:35:29;;;;;;;3.90;3.20;;;;;;;;;;5075551;28;20207;-91
2021/12/04 01:37:56;;;;;;;5.37;4.87;;;;;;;;;;5075365;28;20274;-91
2021/12/04 01:40:24;;;;;;;4.63;3.50;;;;;;;;;;5075708;28;20216;-92
2021/12/04 01:42:51;;;;;;;5.30;3.33;;;;;;;;;;5075305;28;20201;-92
2021/12/04 01:45:20;;;;;;;3.67;3.37;;;;;;;;;;5075406;28;20217;-92
2021/12/04 01:47:49;;;;;;;3.97;3.63;;;;;;;;;;5075288;28;20193;-93
2021/12/04 01:50:16;;;;;;;4.43;4.03;;;;;;;;;;5075282;28;20197;-92
2021/12/04 01:52:43;;;;;;;3.87;3.57;;;;;;;;;;5075251;28;20195;-93
2021/12/04 01:55:11;;;;;;;4.20;3.70;;;;;;;;;;5075417;28;20193;-92
2021/12/04 01:57:38;;;;;;;4.13;3.73;;;;;;;;;;5075316;28;20225;-91
2021/12/04 02:00:08;;;;;;;4.60;4.10;;;;;;;;;;5075516;28;20201;-93
2021/12/04 02:02:35;;;;;;;8.57;7.77;;;;;;;;;;5075156;28;20197;-93
2021/12/04 02:05:05;;;;;;;4.70;4.33;;;;;;;;;;5075066;28;20261;-94
2021/12/04 02:07:32;;;;;;;4.20;3.80;;;;;;;;;;5074900;28;20193;-94
2021/12/04 02:09:59;;;;;;;3.53;2.63;;;;;;;;;;5074738;28;20197;-92
2021/12/04 02:12:26;;;;;;;2.40;2.23;;;;;;;;;;5074882;28;20195;-93
2021/12/04 02:14:54;;;;;;;3.00;2.43;;;;;;;;;;5074747;28;20232;-92
2021/12/04 02:17:21;;;;;;;2.17;2.07;;;;;;;;;;5074637;28;20291;-93
2021/12/04 02:19:49;;;;;;;2.17;2.07;;;;;;;;;;5074631;28;20239;-92
2021/12/04 02:22:18;;;;;;;2.37;1.77;;;;;;;;;;5074884;28;20242;-92
2021/12/04 02:24:45;;;;;;;4.10;2.07;;;;;;;;;;5074934;28;20201;-93
2021/12/04 02:27:13;;;;;;;1.90;1.80;;;;;;;;;;5074681;28;20679;-92
2021/12/04 02:29:46;;;;;;;2.07;1.93;;;;;;;;;;5074870;28;20575;-92
2021/12/04 02:32:14;;;;;;;1.70;1.60;;;;;;;;;;5074400;28;20190;-91
2021/12/04 02:34:42;;;;;;;3.20;1.60;;;;;;;;;;5074518;28;20229;-91
2021/12/04 02:37:10;;;;;;;2.60;2.40;;;;;;;;;;5074566;28;20237;-92
2021/12/04 02:39:44;;;;;;;3.60;3.30;;;;;;;;;;5074373;28;20661;-92
2021/12/04 02:42:21;;;;;;;3.30;3.03;;;;;;;;;;5074609;28;20212;-92
2021/12/04 02:44:48;;;;;;;3.30;2.50;;;;;;;;;;5074458;28;20189;-92
2021/12/04 02:47:15;;;;;;;1.37;1.27;;;;;;;;;;5074258;28;20280;-92
2021/12/04 02:49:45;;;;;;;1.33;1.23;;;;;;;;;;5074369;28;20190;-92
2021/12/04 02:52:13;;;;;;;4.37;3.10;;;;;;;;;;5074121;28;20193;-95
2021/12/04 02:54:42;;;;;;;1.20;1.10;;;;;;;;;;5074360;28;20243;-92
2021/12/04 02:57:12;;;;;;;4.30;3.90;;;;;;;;;;5074166;28;20232;-93
2021/12/04 02:59:40;;;;;;;1.30;1.20;;;;;;;;;;5074461;28;20648;-94
2021/12/04 03:02:10;;;;;;;1.30;1.20;;;;;;;;;;5073988;28;20228;-93
2021/12/04 03:04:37;;;;;;;3.20;2.00;;;;;;;;;;5073693;28;20189;-93
2021/12/04 03:07:05;;;;;;;0.80;0.80;;;;;;;;;;5073717;28;20193;-91
2021/12/04 03:09:32;;;;;;;1.60;1.33;;;;;;;;;;5073585;28;20288;-92
2021/12/04 03:12:04;;;;;;;1.10;1.10;;;;;;;;;;5073500;28;20224;-93
2021/12/04 03:14:31;;;;;;;1.40;1.30;;;;;;;;;;5073641;28;20695;-94
2021/12/04 03:16:58;;;;;;;1.37;1.27;;;;;;;;;;5073643;28;20225;-93
2021/12/04 03:19:26;;;;;;;1.77;1.60;;;;;;;;;;5073495;28;20236;-92
2021/12/04 03:21:54;;;;;;;1.83;1.07;;;;;;;;;;5074015;28;20190;-93
2021/12/04 03:24:22;;;;;;;0.93;0.87;;;;;;;;;;5073424;28;20200;-93
2021/12/04 03:26:50;;;;;;;1.07;1.07;;;;;;;;;;5073398;28;20197;-93
2021/12/04 03:29:22;;;;;;;0.93;0.93;;;;;;;;;;5073242;28;20197;-90
2021/12/04 03:32:17;;;;;;;1.27;1.20;;;;;;;;;;5073696;28;20181;-93
2021/12/04 03:40:34;;;;;;;0.90;0.90;;;;;;;;;;5073520;28;20250;-94
2021/12/04 03:43:02;;;;;;;1.03;1.00;;;;;;;;;;5073641;28;20185;-93
2021/12/04 03:45:33;;;;;;;0.90;0.90;;;;;;;;;;5072468;28;20197;-93
2021/12/04 03:48:07;;;;;;;0.90;0.90;;;;;;;;;;5072843;28;20185;-92
2021/12/04 03:50:34;;;;;;;1.50;0.80;;;;;;;;;;5073037;28;20681;-93
2021/12/04 03:53:02;;;;;;;0.90;0.90;;;;;;;;;;5073107;28;20193;-93
2021/12/04 03:55:29;;;;;;;1.00;1.00;;;;;;;;;;5072703;28;20293;-94
2021/12/04 03:57:56;;;;;;;23.80;13.53;;;;;;;;;;5073446;28;20244;-92
2021/12/04 04:00:28;;;;;;;92.67;45.73;;;;;;;;;;5072794;28;20243;-95
2021/12/04 04:02:58;;;;;;;11.00;7.20;;;;;;;;;;5073415;28;20196;-94
2021/12/04 04:05:25;;;;;;;3.63;2.50;;;;;;;;;;5072795;28;20211;-94
2021/12/04 04:07:52;;;;;;;3.13;1.77;;;;;;;;;;5073023;28;20247;-94
2021/12/04 04:10:20;;;;;;;1.30;1.20;;;;;;;;;;5072694;28;20224;-94
2021/12/04 04:12:48;;;;;;;1.00;1.00;;;;;;;;;;5072963;28;20204;-94
2021/12/04 04:15:15;;;;;;;1.60;1.50;;;;;;;;;;5072644;28;20197;-95
2021/12/04 04:17:43;;;;;;;2.53;1.20;;;;;;;;;;5072570;28;20220;-93
2021/12/04 04:20:16;;;;;;;16.00;10.07;;;;;;;;;;5072839;28;20236;-95
2021/12/04 04:22:44;;;;;;;5.30;3.83;;;;;;;;;;5073445;28;20185;-94
2021/12/04 04:25:12;;;;;;;2.17;1.60;;;;;;;;;;5072915;28;20209;-94
2021/12/04 04:27:40;;;;;;;2.93;2.13;;;;;;;;;;5072662;28;20247;-93
2021/12/04 04:30:11;;;;;;;4.30;2.33;;;;;;;;;;5072770;28;20221;-93
2021/12/04 04:32:39;;;;;;;2.23;1.47;;;;;;;;;;5072808;28;20275;-93
2021/12/04 04:35:10;;;;;;;4.30;3.90;;;;;;;;;;5072845;28;20197;-93
2021/12/04 04:37:45;;;;;;;3.93;2.77;;;;;;;;;;5072961;28;20245;-95
2021/12/04 04:59:35;;;;;;;2.97;1.87;;;;;;;;;;5076534;28;20262;-92
2021/12/04 05:11:03;;;;;;;1.50;1.40;;;;;;;;;;5055450;28;20251;-92
2021/12/04 05:13:30;;;;;;;1.50;1.40;;;;;;;;;;5056286;28;20649;-94
2021/12/04 05:15:58;;;;;;;1.77;1.67;;;;;;;;;;5056035;28;20575;-93
2021/12/04 05:18:39;;;;;;;1.30;1.13;;;;;;;;;;5055797;28;20279;-93
2021/12/04 05:21:08;;;;;;;2.20;2.00;;;;;;;;;;5055722;28;20194;-94
2021/12/04 05:23:37;;;;;;;1.57;1.47;;;;;;;;;;5056036;28;20198;-94
2021/12/04 05:26:07;;;;;;;1.60;1.50;;;;;;;;;;5055688;28;20197;-93
2021/12/04 05:28:35;;;;;;;2.70;1.07;;;;;;;;;;5075059;28;20272;-92
2021/12/04 05:31:02;;;;;;;0.90;0.90;;;;;;;;;;5076284;28;20303;-93
2021/12/04 05:33:30;;;;;;;1.47;0.87;;;;;;;;;;5075726;28;20201;-92
2021/12/04 05:35:57;;;;;;;1.83;1.50;;;;;;;;;;5075456;28;20223;-92
2021/12/04 05:38:25;;;;;;;3.03;1.60;;;;;;;;;;5075385;28;20268;-92
2021/12/04 05:40:52;;;;;;;1.17;1.07;;;;;;;;;;5075418;28;20201;-92
2021/12/04 05:43:23;;;;;;;9.90;6.10;;;;;;;;;;5075688;28;20250;-92
2021/12/04 05:45:56;;;;;;;3.93;3.47;;;;;;;;;;5075365;28;20185;-94
2021/12/04 05:48:30;;;;;;;3.53;2.70;;;;;;;;;;5075316;28;20182;-93
2021/12/04 05:53:56;;;;;;;0.93;0.90;;;;;;;;;;5074882;28;20661;-94
2021/12/04 05:56:24;;;;;;;0.60;0.60;;;;;;;;;;5075179;28;20256;-93
2021/12/04 05:58:53;;;;;;;0.53;0.53;;;;;;;;;;5075492;28;20585;-92
2021/12/04 06:01:22;;;;;;;0.87;0.70;;;;;;;;;;5075107;28;20224;-93
2021/12/04 06:03:49;;;;;;;0.50;0.50;;;;;;;;;;5075160;28;20201;-94
2021/12/04 06:06:17;;;;;;;1.53;1.43;;;;;;;;;;5075365;28;20244;-93
2021/12/04 06:08:44;;;;;;;2.80;2.60;;;;;;;;;;5075073;28;20639;-93
2021/12/04 06:11:11;;;;;;;0.60;0.60;;;;;;;;;;5075599;28;20287;-93
2021/12/04 06:13:39;;;;;;;0.60;0.60;;;;;;;;;;5075275;28;20205;-93
2021/12/04 06:16:08;;;;;;;0.40;0.40;;;;;;;;;;5061643;28;20202;-92
2021/12/04 06:18:36;;;;;;;3.77;2.67;;;;;;;;;;5061389;28;20329;-94
2021/12/04 06:27:17;;;;;;;1.60;0.60;;;;;;;;;;5098580;28;20260;-95
2021/12/04 06:29:44;;;;;;;0.53;0.53;;;;;;;;;;5076547;28;20204;-96
2021/12/04 06:32:13;;;;;;;0.50;0.50;;;;;;;;;;5075364;28;20255;-93
2021/12/04 06:34:40;;;;;;;0.60;0.60;;;;;;;;;;5075091;28;20243;-93
2021/12/04 06:37:08;;;;;;;0.40;0.40;;;;;;;;;;5074511;28;20237;-92
2021/12/04 06:39:35;;;;;;;0.80;0.77;;;;;;;;;;5074537;28;20224;-93
2021/12/04 06:42:03;;;;;;;1.07;0.73;;;;;;;;;;5074452;28;20292;-93
2021/12/04 06:44:30;;;;;;;1.17;1.07;;;;;;;;;;5074334;28;20197;-95
2021/12/04 06:46:57;;;;;;;0.40;0.40;;;;;;;;;;5074343;28;20229;-92
2021/12/04 06:49:30;;;;;;;0.60;0.60;;;;;;;;;;5074275;28;20197;-94
2021/12/04 06:52:00;;;;;;;0.50;0.50;;;;;;;;;;5074424;28;20280;-94
2021/12/04 06:54:31;;;;;;;1.00;1.00;;;;;;;;;;5074278;28;20186;-93
2021/12/04 06:56:58;;;;;;;1.10;1.00;;;;;;;;;;5074035;28;20617;-92
2021/12/04 06:59:28;;;;;;;0.90;0.90;;;;;;;;;;5074269;28;20231;-93
2021/12/04 07:01:56;;;;;;;0.73;0.73;;;;;;;;;;5074431;28;20201;-93
2021/12/04 07:04:29;;;;;;;1.17;1.07;;;;;;;;;;5074253;28;20213;-93
2021/12/04 07:06:57;;;;;;;1.50;1.40;;;;;;;;;;5073982;28;20284;-93
2021/12/04 07:09:25;;;;;;;2.90;1.80;;;;;;;;;;5073880;28;20236;-94
2021/12/04 07:11:52;;;;;;;3.57;3.00;;;;;;;;;;5074342;28;20201;-94
2021/12/04 07:14:19;;;;;;;1.60;1.50;;;;;;;;;;5074158;28;20258;-94
2021/12/04 07:16:47;;;;;;;7.40;5.40;;;;;;;;;;5073761;28;20217;-93
2021/12/04 07:19:14;;;;;;;1.40;1.23;;;;;;;;;;5073492;28;20220;-93
2021/12/04 07:21:41;;;;;;;2.13;1.90;;;;;;;;;;5086935;28;20239;-91
2021/12/04 07:24:11;;;;;;;2.93;2.70;;;;;;;;;;5093958;28;20628;-93
2021/12/04 07:26:38;;;;;;;1.23;1.13;;;;;;;;;;5093763;28;20287;-92
2021/12/04 07:29:06;;;;;;;2.70;2.47;;;;;;;;;;5093774;28;20741;-92
2021/12/04 07:31:34;;;;;;;2.00;1.87;;;;;;;;;;5093709;28;20215;-91
2021/12/04 07:34:01;;;;;;;7.33;4.27;;;;;;;;;;5093851;28;20206;-91
2021/12/04 07:36:28;;;;;;;1.43;1.33;;;;;;;;;;5093789;28;20574;-91
2021/12/04 07:38:56;;;;;;;0.80;0.80;;;;;;;;;;5092803;28;20226;-91
2021/12/04 07:41:24;;;;;;;1.20;1.10;;;;;;;;;;5053118;28;20201;-91
2021/12/04 07:43:51;;;;;;;3.10;2.80;;;;;;;;;;5053155;28;20213;-93
2021/12/04 07:46:19;;;;;;;3.30;2.30;;;;;;;;;;5053291;28;20202;-91
2021/12/04 07:48:46;;;;;;;0.97;0.97;;;;;;;;;;5053823;28;20550;-92
2021/12/04 07:51:14;;;;;;;1.27;1.17;;;;;;;;;;5053241;28;20202;-91
2021/12/04 07:53:41;;;;;;;0.90;0.90;;;;;;;;;;5071686;28;20274;-91
2021/12/04 07:56:09;;;;;;;1.03;0.97;;;;;;;;;;5072797;28;20229;-89
2021/12/04 07:58:38;;;;;;;1.20;1.10;;;;;;;;;;5072832;28;20225;-90
2021/12/04 08:01:06;;;;;;;111.37;60.00;;;;;;;;;;5072943;28;20223;-90
2021/12/04 08:03:33;;;;;;;4.73;3.97;;;;;;;;;;5073257;28;20578;-90
2021/12/04 08:06:00;;;;;;;1.43;1.33;;;;;;;;;;5072851;28;20190;-90
2021/12/04 08:08:27;;;;;;;165.90;144.27;;;;;;;;;;5072763;28;20201;-90
2021/12/04 08:10:54;;;;;;;9.80;9.10;;;;;;;;;;5072822;28;20197;-90
2021/12/04 08:13:22;;;;;;;2.20;2.00;;;;;;;;;;5072808;28;20212;-91
2021/12/04 08:15:51;;;;;;;1.43;1.33;;;;;;;;;;5072987;28;20189;-91
2021/12/04 08:18:18;;;;;;;1.97;1.87;;;;;;;;;;5072923;28;20221;-92
2021/12/04 08:20:46;;;;;;;5.33;4.83;;;;;;;;;;5073058;28;20204;-91
2021/12/04 08:23:13;;;;;;;3.90;3.50;;;;;;;;;;5072595;28;20197;-90
2021/12/04 08:25:41;;;;;;;7.67;6.90;;;;;;;;;;5072922;28;20208;-93
2021/12/04 08:28:08;;;;;;;34.60;31.10;;;;;;;;;;5072531;28;20221;-93
2021/12/04 08:30:39;;;;;;;10.17;6.90;;;;;;;;;;5073821;28;20204;-94
2021/12/04 08:33:08;;;;;;;34.60;31.37;;;;;;;;;;5077446;28;20277;-93
2021/12/04 08:35:39;;;;;;;154.87;137.40;;;;;;;;;;5076698;28;20197;-90
2021/12/04 08:38:07;;;;;;;44.27;38.33;;;;;;;;;;5076480;28;20238;-89
2021/12/04 08:40:34;;;;;;;17.07;15.27;;;;;;;;;;5063405;28;20196;-90
2021/12/04 08:43:01;;;;;;;16.77;15.03;;;;;;;;;;5076493;28;20291;-88
2021/12/04 08:45:29;;;;;;;15.03;13.20;;;;;;;;;;5076457;28;20688;-90
2021/12/04 08:47:56;;;;;;;9.90;7.57;;;;;;;;;;5080437;28;20640;-90
2021/12/04 08:50:29;;;;;;;172.03;124.47;;;;;;;;;;5096953;28;20202;-88
2021/12/04 08:52:57;;;;;;;383.27;274.43;;;;;;;;;;5096769;28;20181;-88
2021/12/04 08:55:25;;;;;;;300.43;201.17;;;;;;;;;;5096757;28;20200;-88
2021/12/04 08:57:53;;;;;;;449.77;312.63;;;;;;;;;;5096688;28;20180;-89
2021/12/04 09:00:25;;;;;;;37.57;27.33;;;;;;;;;;5096597;28;20570;-91
2021/12/04 09:02:53;;;;;;;11.87;10.10;;;;;;;;;;5096532;28;20189;-92
2021/12/04 09:05:21;;;;;;;10.97;8.93;;;;;;;;;;5096375;28;20199;-92
2021/12/04 09:07:51;;;;;;;9.93;9.00;;;;;;;;;;5096584;28;20196;-93
2021/12/04 09:10:19;;;;;;;6.73;6.03;;;;;;;;;;5096427;28;20215;-91
2021/12/04 09:12:47;;;;;;;4.83;4.43;;;;;;;;;;5096511;28;20204;-92
2021/12/04 09:15:16;;;;;;;7.10;6.40;;;;;;;;;;5102765;28;20661;-91
2021/12/04 09:17:43;;;;;;;21.10;19.03;;;;;;;;;;5096166;28;20198;-91
2021/12/04 09:20:12;;;;;;;15.13;10.47;;;;;;;;;;5096177;28;20227;-91
2021/12/04 09:22:39;;;;;;;51.73;30.13;;;;;;;;;;5096635;28;20230;-91
2021/12/04 09:25:13;;;;;;;35.83;23.53;;;;;;;;;;5096100;28;20282;-92
2021/12/04 09:27:59;;;;;;;49.33;28.50;;;;;;;;;;5096052;28;20189;-92
2021/12/04 10:01:06;;;;;;;1.37;0.87;;;;;;;;;;5075762;28;20685;-93
2021/12/04 10:12:28;;;;;;;2.37;2.17;;;;;;;;;;5075303;28;20176;-92
2021/12/04 10:18:21;;;;;;;10.33;7.50;;;;;;;;;;5075099;28;20188;-93
2021/12/04 10:32:25;;;;;;;28.53;20.40;;;;;;;;;;5075006;28;20185;-92
2021/12/04 10:34:55;;;;;;;18.27;16.67;;;;;;;;;;5074663;28;20258;-92
2021/12/04 10:37:25;;;;;;;20.93;18.93;;;;;;;;;;5075170;28;20616;-92
2021/12/04 10:39:53;;;;;;;24.70;22.30;;;;;;;;;;5074297;28;20228;-93
2021/12/04 10:42:24;;;;;;;5.40;4.93;;;;;;;;;;5073092;28;20232;-91
2021/12/04 10:44:53;;;;;;;7.83;7.03;;;;;;;;;;5074497;28;20197;-92
2021/12/04 10:47:27;;;;;;;8.90;8.10;;;;;;;;;;5074223;28;20680;-90
2021/12/04 10:50:07;;;;;;;9.40;8.40;;;;;;;;;;5074107;28;20216;-90
2021/12/04 10:52:47;;;;;;;10.13;9.13;;;;;;;;;;5074125;28;20189;-89
2021/12/04 10:55:19;;;;;;;18.10;16.30;;;;;;;;;;5072815;28;20216;-90
2021/12/04 11:00:55;;;;;;;9.10;7.23;;;;;;;;;;5054287;28;20219;-92
2021/12/04 11:28:28;;;;;;;2.27;2.07;;;;;;;;;;5054219;28;20185;-89
2021/12/04 11:36:45;;;;;;;1.30;1.20;;;;;;;;;;5053702;28;20620;-89
2021/12/04 11:39:39;;;;;;;1.70;1.23;;;;;;;;;;5053016;28;20210;-90
2021/12/04 11:42:11;;;;;;;1.20;1.10;;;;;;;;;;5053238;28;20189;-90
2021/12/04 11:44:49;;;;;;;1.00;1.00;;;;;;;;;;5051006;28;20194;-91
2021/12/04 11:47:18;;;;;;;1.57;1.47;;;;;;;;;;5033245;28;20187;-92
2021/12/04 11:49:45;;;;;;;3.43;3.13;;;;;;;;;;5043164;28;20560;-95
2021/12/04 11:52:17;;;;;;;1.97;1.77;;;;;;;;;;5073437;28;20193;-95
2021/12/04 11:54:47;;;;;;;2.10;2.00;;;;;;;;;;5073506;28;20653;-95
2021/12/04 11:57:17;;;;;;;5.00;3.87;;;;;;;;;;5089381;28;20324;-95
2021/12/04 11:59:46;;;;;;;2.70;2.50;;;;;;;;;;5093229;28;20246;-95
2021/12/04 12:02:20;;;;;;;2.10;2.00;;;;;;;;;;5093125;28;20269;-94
2021/12/04 12:04:50;;;;;;;2.10;2.00;;;;;;;;;;5093369;28;20188;-96
2021/12/04 12:07:20;;;;;;;3.30;3.00;;;;;;;;;;5093490;28;20196;-95
2021/12/04 12:09:50;;;;;;;2.57;2.37;;;;;;;;;;5093924;28;20181;-96
2021/12/04 12:12:18;;;;;;;7.63;6.87;;;;;;;;;;5094737;28;20188;-95
2021/12/04 12:15:03;;;;;;;18.87;14.43;;;;;;;;;;5094430;28;20235;-96
2021/12/04 12:17:34;;;;;;;10.07;7.83;;;;;;;;;;5092994;28;20187;-96
2021/12/04 12:20:03;;;;;;;3.23;2.93;;;;;;;;;;5092903;28;20220;-96
2021/12/04 12:22:40;;;;;;;3.67;3.37;;;;;;;;;;5093885;28;20787;-96
2021/12/04 12:25:30;;;;;;;8.00;6.30;;;;;;;;;;5086889;28;20204;-96
2021/12/04 12:33:43;;;;;;;7.60;6.70;;;;;;;;;;5061565;28;20197;-96
2021/12/04 12:36:12;;;;;;;8.60;7.70;;;;;;;;;;5054521;28;20225;-96
2021/12/04 12:38:50;;;;;;;8.53;7.73;;;;;;;;;;5056645;28;20231;-96
2021/12/04 12:41:24;;;;;;;4.87;4.40;;;;;;;;;;5054459;28;20193;-96
2021/12/04 12:43:59;;;;;;;2.30;2.10;;;;;;;;;;5056062;28;20187;-96
2021/12/04 12:46:38;;;;;;;3.83;3.10;;;;;;;;;;5059741;28;20193;-96
2021/12/04 12:49:07;;;;;;;3.33;3.03;;;;;;;;;;5055753;28;20217;-96
2021/12/04 12:51:36;;;;;;;3.80;3.50;;;;;;;;;;5054642;28;20674;-96
2021/12/04 12:54:07;;;;;;;2.73;2.33;;;;;;;;;;5053919;28;20202;-96
2021/12/04 12:56:37;;;;;;;3.73;3.33;;;;;;;;;;5052788;28;20233;-96
2021/12/04 12:59:08;;;;;;;2.67;2.20;;;;;;;;;;5053045;28;20230;-96
2021/12/04 13:13:24;;;;;;;2.33;2.13;;;;;;;;;;5056116;28;20177;-93
2021/12/04 13:15:52;;;;;;;2.53;2.33;;;;;;;;;;5052123;28;20204;-92
2021/12/04 13:18:22;;;;;;;35.70;22.90;;;;;;;;;;5054580;28;20214;-94
2021/12/04 13:20:51;;;;;;;4.23;3.60;;;;;;;;;;5058004;28;20278;-93
2021/12/04 13:23:22;;;;;;;3.80;3.50;;;;;;;;;;5056329;28;20225;-94
2021/12/04 13:25:56;;;;;;;4.90;3.00;;;;;;;;;;5063114;28;20193;-93
2021/12/04 13:28:29;;;;;;;2.60;2.33;;;;;;;;;;5073486;28;20261;-92
2021/12/04 13:30:58;;;;;;;2.30;1.97;;;;;;;;;;5075517;28;20188;-90
2021/12/04 13:33:25;;;;;;;2.30;2.20;;;;;;;;;;5076299;28;20197;-94
2021/12/04 13:35:52;;;;;;;2.83;2.43;;;;;;;;;;5075624;28;20189;-94
2021/12/04 13:38:22;;;;;;;2.93;2.30;;;;;;;;;;5075250;28;20199;-95
2021/12/04 13:40:52;;;;;;;4.73;3.53;;;;;;;;;;5057785;28;20225;-94
2021/12/04 13:43:22;;;;;;;5.63;5.17;;;;;;;;;;5058227;28;20194;-95
2021/12/04 13:45:57;;;;;;;4.17;3.77;;;;;;;;;;5058295;28;20221;-95
2021/12/04 13:48:25;;;;;;;3.37;3.07;;;;;;;;;;5059981;28;20233;-95
2021/12/04 13:50:53;;;;;;;2.87;2.67;;;;;;;;;;5059042;28;20280;-91
2021/12/04 13:53:25;;;;;;;2.60;2.30;;;;;;;;;;5060689;28;20201;-95
2021/12/04 13:55:55;;;;;;;3.37;2.70;;;;;;;;;;5056149;28;20288;-95
2021/12/04 13:58:24;;;;;;;4.67;3.33;;;;;;;;;;5056479;28;20221;-96
2021/12/04 14:00:51;;;;;;;5.27;4.50;;;;;;;;;;5059455;28;20261;-95
2021/12/04 14:03:26;;;;;;;5.37;4.97;;;;;;;;;;5075250;28;20757;-95
2021/12/04 14:05:54;;;;;;;4.77;4.33;;;;;;;;;;5075193;28;20185;-95
2021/12/04 14:08:22;;;;;;;5.47;4.90;;;;;;;;;;5075011;28;20193;-95
2021/12/04 14:10:50;;;;;;;6.40;5.80;;;;;;;;;;5075437;28;20200;-95
2021/12/04 14:13:19;;;;;;;5.07;4.57;;;;;;;;;;5075716;28;20193;-95
2021/12/04 14:15:50;;;;;;;3.70;3.40;;;;;;;;;;5075247;28;20204;-95
2021/12/04 14:18:19;;;;;;;17.93;13.90;;;;;;;;;;5075567;28;20181;-95
2021/12/04 14:20:50;;;;;;;3.63;3.33;;;;;;;;;;5074742;28;20224;-95
2021/12/04 14:23:17;;;;;;;2.70;2.50;;;;;;;;;;5075936;28;20182;-95
2021/12/04 14:25:45;;;;;;;3.53;2.80;;;;;;;;;;5074976;28;20273;-95
2021/12/04 14:28:13;;;;;;;5.67;5.17;;;;;;;;;;5075488;28;20197;-95
2021/12/04 14:30:44;;;;;;;8.73;6.97;;;;;;;;;;5074981;28;20574;-95
2021/12/04 14:33:21;;;;;;;8.13;5.73;;;;;;;;;;5074828;28;20205;-95
2021/12/04 14:35:51;;;;;;;7.43;6.43;;;;;;;;;;5074932;28;20636;-96
2021/12/04 14:38:20;;;;;;;4.53;4.03;;;;;;;;;;5057005;28;20202;-95
2021/12/04 14:40:50;;;;;;;5.53;4.40;;;;;;;;;;5054339;28;20617;-95
2021/12/04 14:43:20;;;;;;;13.47;10.37;;;;;;;;;;5054506;28;20662;-94
2021/12/04 14:45:51;;;;;;;17.70;15.50;;;;;;;;;;5054677;28;20198;-95
2021/12/04 14:48:22;;;;;;;13.87;10.80;;;;;;;;;;5054615;28;20227;-94
2021/12/04 14:50:55;;;;;;;20.10;15.03;;;;;;;;;;5054723;28;20213;-95
2021/12/04 14:53:22;;;;;;;21.37;17.60;;;;;;;;;;5054756;28;20264;-95
2021/12/04 14:55:52;;;;;;;48.30;35.60;;;;;;;;;;5054170;28;20241;-96
2021/12/04 14:58:20;;;;;;;26.93;21.07;;;;;;;;;;5054205;28;20196;-94
2021/12/04 15:00:50;;;;;;;19.17;15.20;;;;;;;;;;5053472;28;20229;-95
2021/12/04 15:03:29;;;;;;;23.13;16.57;;;;;;;;;;5054417;28;20197;-95
2021/12/04 15:05:58;;;;;;;50.53;35.23;;;;;;;;;;5054133;28;20193;-94
2021/12/04 15:08:28;;;;;;;23.20;19.90;;;;;;;;;;5053887;28;20237;-94
2021/12/04 15:10:58;;;;;;;17.03;15.30;;;;;;;;;;5054161;28;20194;-94
2021/12/04 15:13:28;;;;;;;8.17;7.37;;;;;;;;;;5054121;28;20680;-94
2021/12/04 15:16:00;;;;;;;8.30;6.87;;;;;;;;;;5053796;28;20681;-95
2021/12/04 15:18:33;;;;;;;6.20;5.20;;;;;;;;;;5054093;28;20182;-95
2021/12/04 15:21:03;;;;;;;6.60;5.90;;;;;;;;;;5064696;28;20645;-95
2021/12/04 15:23:31;;;;;;;28.93;17.57;;;;;;;;;;5073822;28;20211;-95
2021/12/04 15:26:01;;;;;;;9.50;6.83;;;;;;;;;;5073818;28;20618;-96
2021/12/04 15:28:31;;;;;;;8.83;7.93;;;;;;;;;;5074132;28;20203;-95
2021/12/04 15:31:00;;;;;;;6.93;6.17;;;;;;;;;;5073686;28;20200;-94
2021/12/04 15:33:30;;;;;;;6.23;5.50;;;;;;;;;;5073355;28;20202;-94
2021/12/04 15:36:00;;;;;;;10.97;9.87;;;;;;;;;;5073282;28;20284;-95
2021/12/04 15:38:41;;;;;;;12.73;11.53;;;;;;;;;;5071102;28;20753;-94
2021/12/04 15:41:25;;;;;;;8.57;7.77;;;;;;;;;;5035269;28;20221;-95
2021/12/04 15:44:05;;;;;;;39.70;28.17;;;;;;;;;;5053577;28;20563;-95
2021/12/04 15:46:41;;;;;;;142.50;95.63;;;;;;;;;;5058198;28;20232;-95
2021/12/04 15:54:38;;;;;;;23.17;18.53;;;;;;;;;;5073463;28;20185;-95
2021/12/04 15:57:13;;;;;;;15.10;13.37;;;;;;;;;;5073651;28;20236;-88
2021/12/04 15:59:45;;;;;;;6.93;6.20;;;;;;;;;;5073730;28;20724;-94
2021/12/04 16:02:15;;;;;;;19.57;16.97;;;;;;;;;;5073332;28;20213;-93
2021/12/04 16:04:44;;;;;;;23.93;20.67;;;;;;;;;;5073513;28;20296;-93
2021/12/04 16:07:24;;;;;;;27.93;18.07;;;;;;;;;;5073038;28;20197;-93
2021/12/04 16:09:51;;;;;;;25.07;19.43;;;;;;;;;;5073182;28;20181;-94
2021/12/04 16:12:23;;;;;;;27.03;18.80;;;;;;;;;;5073401;28;20580;-94
2021/12/04 16:14:55;;;;;;;22.03;16.73;;;;;;;;;;5072817;28;20200;-93
2021/12/04 16:17:23;;;;;;;30.70;26.50;;;;;;;;;;5073140;28;20181;-94
2021/12/04 16:20:01;;;;;;;20.83;15.47;;;;;;;;;;5055632;28;20197;-94
2021/12/04 16:22:36;;;;;;;37.27;24.07;;;;;;;;;;5052854;28;20255;-94
2021/12/04 16:25:05;;;;;;;111.50;63.70;;;;;;;;;;5075721;28;20197;-94
2021/12/04 16:27:37;;;;;;;37.73;27.23;;;;;;;;;;5093516;28;20206;-93
2021/12/04 16:30:23;;;;;;;23.13;19.30;;;;;;;;;;5093275;28;20231;-93
2021/12/04 16:33:04;;;;;;;14.73;10.50;;;;;;;;;;5093166;28;20580;-93
2021/12/04 16:35:43;;;;;;;14.07;11.00;;;;;;;;;;5093091;28;20202;-94
2021/12/04 16:41:28;;;;;;;15.47;11.67;;;;;;;;;;5095423;28;20231;-94
2021/12/04 16:43:56;;;;;;;20.47;15.87;;;;;;;;;;5072686;28;20278;-93
2021/12/04 16:46:25;;;;;;;24.07;19.47;;;;;;;;;;5072686;28;20222;-94
2021/12/04 16:48:55;;;;;;;19.50;17.17;;;;;;;;;;5072743;28;20193;-93
2021/12/04 16:57:25;;;;;;;74.17;40.53;;;;;;;;;;4975959;28;20233;-94
2021/12/04 16:59:54;;;;;;;27.83;20.67;;;;;;;;;;5047540;28;20212;-95
2021/12/04 17:02:23;;;;;;;45.77;28.57;;;;;;;;;;5056396;28;20269;-95
2021/12/04 17:04:51;;;;;;;62.30;40.70;;;;;;;;;;5056416;28;20201;-94
2021/12/04 17:07:20;;;;;;;55.03;35.50;;;;;;;;;;5056518;28;20217;-94
2021/12/04 17:09:47;;;;;;;66.20;41.97;;;;;;;;;;5056346;28;20614;-95
2021/12/04 17:12:17;;;;;;;55.60;36.30;;;;;;;;;;5056153;28;20224;-95
2021/12/04 17:14:44;;;;;;;38.13;27.03;;;;;;;;;;5056309;28;20206;-93
2021/12/04 17:17:13;;;;;;;47.70;31.53;;;;;;;;;;5056076;28;20204;-94
2021/12/04 17:19:40;;;;;;;30.70;21.10;;;;;;;;;;5056142;28;20212;-94
2021/12/04 17:22:08;;;;;;;54.00;31.97;;;;;;;;;;5055811;28;20275;-93
2021/12/04 17:24:35;;;;;;;23.47;19.40;;;;;;;;;;5055914;28;20708;-94
2021/12/04 17:27:06;;;;;;;13.73;12.33;;;;;;;;;;5055739;28;20686;-94
2021/12/04 17:29:35;;;;;;;10.43;9.20;;;;;;;;;;5056148;28;20208;-92
2021/12/04 17:32:05;;;;;;;9.20;8.20;;;;;;;;;;5055977;28;20726;-93
2021/12/04 17:34:32;;;;;;;9.23;8.10;;;;;;;;;;5056006;28;20263;-94
2021/12/04 17:37:00;;;;;;;10.97;8.87;;;;;;;;;;5055779;28;20206;-94
2021/12/04 17:39:27;;;;;;;18.70;10.87;;;;;;;;;;5055698;28;20189;-94
2021/12/04 17:41:54;;;;;;;27.20;20.83;;;;;;;;;;5055666;28;20221;-93
2021/12/04 17:44:22;;;;;;;13.80;12.33;;;;;;;;;;5055504;28;20244;-92